sensor_id;sensor_type;location;lat;lon;timestamp;P1;durP1;ratioP1;P2;durP2;ratioP2
63959;SDS011;50136;51.374;0.096;2023-08-31T00:04:27;7.30;;;2.90;;
63959;SDS011;50136;51.374;0.096;2023-08-31T00:14:29;8.18;;;2.72;;
63959;SDS011;50136;51.374;0.096;2023-08-31T00:24:33;6.15;;;2.40;;
63959;SDS011;50136;51.374;0.096;2023-08-31T00:34:35;8.05;;;2.50;;
63959;SDS011;50136;51.374;0.096;2023-08-31T00:44:38;5.20;;;2.92;;
63959;SDS011;50136;51.374;0.096;2023-08-31T00:54:40;7.78;;;2.70;;
63959;SDS011;50136;51.374;0.096;2023-08-31T01:04:45;16.05;;;2.65;;
63959;SDS011;50136;51.374;0.096;2023-08-31T01:14:56;11.00;;;3.05;;
63959;SDS011;50136;51.374;0.096;2023-08-31T01:25:03;5.28;;;2.80;;
63959;SDS011;50136;51.374;0.096;2023-08-31T01:35:06;5.30;;;2.53;;
63959;SDS011;50136;51.374;0.096;2023-08-31T01:45:10;3.50;;;2.55;;
63959;SDS011;50136;51.374;0.096;2023-08-31T01:55:14;5.43;;;2.75;;
63959;SDS011;50136;51.374;0.096;2023-08-31T02:05:18;5.40;;;4.00;;
63959;SDS011;50136;51.374;0.096;2023-08-31T02:15:19;8.98;;;2.60;;
63959;SDS011;50136;51.374;0.096;2023-08-31T02:25:23;4.78;;;2.70;;
63959;SDS011;50136;51.374;0.096;2023-08-31T02:35:25;8.30;;;2.60;;
63959;SDS011;50136;51.374;0.096;2023-08-31T02:45:28;7.00;;;2.40;;
63959;SDS011;50136;51.374;0.096;2023-08-31T02:55:31;7.47;;;2.72;;
63959;SDS011;50136;51.374;0.096;2023-08-31T03:05:35;10.65;;;2.47;;
63959;SDS011;50136;51.374;0.096;2023-08-31T03:15:37;5.90;;;2.67;;
63959;SDS011;50136;51.374;0.096;2023-08-31T03:25:40;8.23;;;2.45;;
63959;SDS011;50136;51.374;0.096;2023-08-31T03:35:43;6.03;;;3.25;;
63959;SDS011;50136;51.374;0.096;2023-08-31T03:45:46;4.93;;;2.55;;
63959;SDS011;50136;51.374;0.096;2023-08-31T03:55:48;5.53;;;3.00;;
63959;SDS011;50136;51.374;0.096;2023-08-31T04:05:54;7.15;;;2.95;;
63959;SDS011;50136;51.374;0.096;2023-08-31T04:15:57;5.80;;;2.97;;
63959;SDS011;50136;51.374;0.096;2023-08-31T04:26:00;7.97;;;2.67;;
63959;SDS011;50136;51.374;0.096;2023-08-31T04:36:11;4.70;;;2.30;;
63959;SDS011;50136;51.374;0.096;2023-08-31T04:46:14;5.40;;;2.78;;
63959;SDS011;50136;51.374;0.096;2023-08-31T04:56:17;8.80;;;3.58;;
63959;SDS011;50136;51.374;0.096;2023-08-31T05:06:20;6.20;;;2.60;;
63959;SDS011;50136;51.374;0.096;2023-08-31T05:16:22;10.07;;;2.65;;
63959;SDS011;50136;51.374;0.096;2023-08-31T05:26:26;5.68;;;2.80;;
63959;SDS011;50136;51.374;0.096;2023-08-31T05:36:28;3.92;;;2.08;;
63959;SDS011;50136;51.374;0.096;2023-08-31T05:46:31;10.80;;;2.88;;
63959;SDS011;50136;51.374;0.096;2023-08-31T05:56:33;7.00;;;2.85;;
63959;SDS011;50136;51.374;0.096;2023-08-31T06:06:36;6.85;;;2.55;;
63959;SDS011;50136;51.374;0.096;2023-08-31T06:16:38;9.05;;;2.55;;
63959;SDS011;50136;51.374;0.096;2023-08-31T06:26:42;7.90;;;3.42;;
63959;SDS011;50136;51.374;0.096;2023-08-31T06:36:44;9.75;;;3.15;;
63959;SDS011;50136;51.374;0.096;2023-08-31T06:46:48;10.38;;;3.15;;
63959;SDS011;50136;51.374;0.096;2023-08-31T06:56:50;7.28;;;3.30;;
63959;SDS011;50136;51.374;0.096;2023-08-31T07:06:54;4.63;;;2.65;;
63959;SDS011;50136;51.374;0.096;2023-08-31T07:16:56;10.48;;;3.20;;
63959;SDS011;50136;51.374;0.096;2023-08-31T07:26:59;8.38;;;2.90;;
63959;SDS011;50136;51.374;0.096;2023-08-31T07:37:02;6.65;;;3.05;;
63959;SDS011;50136;51.374;0.096;2023-08-31T07:47:06;5.28;;;2.50;;
63959;SDS011;50136;51.374;0.096;2023-08-31T07:57:08;7.20;;;2.65;;
63959;SDS011;50136;51.374;0.096;2023-08-31T08:07:11;4.55;;;2.30;;
63959;SDS011;50136;51.374;0.096;2023-08-31T08:17:13;7.45;;;2.17;;
63959;SDS011;50136;51.374;0.096;2023-08-31T08:27:17;6.03;;;2.22;;
63959;SDS011;50136;51.374;0.096;2023-08-31T08:37:19;6.72;;;2.08;;
63959;SDS011;50136;51.374;0.096;2023-08-31T08:47:22;5.63;;;2.13;;
63959;SDS011;50136;51.374;0.096;2023-08-31T08:57:25;7.78;;;2.05;;
63959;SDS011;50136;51.374;0.096;2023-08-31T09:07:33;3.97;;;1.75;;
63959;SDS011;50136;51.374;0.096;2023-08-31T09:17:40;6.53;;;2.20;;
63959;SDS011;50136;51.374;0.096;2023-08-31T09:27:44;8.15;;;1.80;;
63959;SDS011;50136;51.374;0.096;2023-08-31T09:37:54;4.40;;;2.15;;
63959;SDS011;50136;51.374;0.096;2023-08-31T09:47:58;10.23;;;3.40;;
63959;SDS011;50136;51.374;0.096;2023-08-31T09:58:01;12.20;;;4.85;;
63959;SDS011;50136;51.374;0.096;2023-08-31T10:08:18;8.35;;;4.07;;
63959;SDS011;50136;51.374;0.096;2023-08-31T10:18:20;6.50;;;3.50;;
63959;SDS011;50136;51.374;0.096;2023-08-31T10:28:25;6.38;;;3.60;;
63959;SDS011;50136;51.374;0.096;2023-08-31T10:38:28;7.70;;;4.20;;
63959;SDS011;50136;51.374;0.096;2023-08-31T10:48:36;8.82;;;3.92;;
63959;SDS011;50136;51.374;0.096;2023-08-31T10:58:55;8.35;;;4.03;;
63959;SDS011;50136;51.374;0.096;2023-08-31T11:09:00;4.23;;;2.73;;
63959;SDS011;50136;51.374;0.096;2023-08-31T11:19:02;5.90;;;2.72;;
63959;SDS011;50136;51.374;0.096;2023-08-31T11:29:07;8.23;;;3.15;;
63959;SDS011;50136;51.374;0.096;2023-08-31T11:39:09;7.05;;;2.83;;
63959;SDS011;50136;51.374;0.096;2023-08-31T11:49:13;7.60;;;2.92;;
63959;SDS011;50136;51.374;0.096;2023-08-31T11:59:15;5.50;;;2.67;;
63959;SDS011;50136;51.374;0.096;2023-08-31T12:09:19;6.47;;;2.58;;
63959;SDS011;50136;51.374;0.096;2023-08-31T12:19:21;5.45;;;2.60;;
63959;SDS011;50136;51.374;0.096;2023-08-31T12:29:29;7.88;;;2.75;;
63959;SDS011;50136;51.374;0.096;2023-08-31T12:39:32;6.10;;;3.40;;
63959;SDS011;50136;51.374;0.096;2023-08-31T12:49:36;7.00;;;2.40;;
63959;SDS011;50136;51.374;0.096;2023-08-31T12:59:38;7.53;;;2.78;;
63959;SDS011;50136;51.374;0.096;2023-08-31T13:09:41;4.40;;;2.10;;
63959;SDS011;50136;51.374;0.096;2023-08-31T13:19:43;7.40;;;2.35;;
63959;SDS011;50136;51.374;0.096;2023-08-31T13:29:46;4.25;;;1.70;;
63959;SDS011;50136;51.374;0.096;2023-08-31T13:39:49;5.18;;;1.80;;
63959;SDS011;50136;51.374;0.096;2023-08-31T13:49:53;5.47;;;2.30;;
63959;SDS011;50136;51.374;0.096;2023-08-31T13:59:55;6.55;;;2.20;;
63959;SDS011;50136;51.374;0.096;2023-08-31T14:09:59;9.85;;;2.13;;
63959;SDS011;50136;51.374;0.096;2023-08-31T14:20:01;5.18;;;2.70;;
63959;SDS011;50136;51.374;0.096;2023-08-31T14:30:05;7.97;;;2.28;;
63959;SDS011;50136;51.374;0.096;2023-08-31T14:40:09;5.43;;;1.70;;
63959;SDS011;50136;51.374;0.096;2023-08-31T14:50:13;9.05;;;2.40;;
63959;SDS011;50136;51.374;0.096;2023-08-31T15:00:15;5.57;;;2.22;;
63959;SDS011;50136;51.374;0.096;2023-08-31T15:10:19;4.85;;;1.90;;
63959;SDS011;50136;51.374;0.096;2023-08-31T15:20:21;5.22;;;2.03;;
63959;SDS011;50136;51.374;0.096;2023-08-31T15:30:25;7.32;;;2.28;;
63959;SDS011;50136;51.374;0.096;2023-08-31T15:40:27;4.28;;;1.42;;
63959;SDS011;50136;51.374;0.096;2023-08-31T15:50:31;4.30;;;1.88;;
63959;SDS011;50136;51.374;0.096;2023-08-31T16:00:33;3.33;;;1.60;;
63959;SDS011;50136;51.374;0.096;2023-08-31T16:10:36;7.65;;;2.55;;
63959;SDS011;50136;51.374;0.096;2023-08-31T16:20:38;2.80;;;1.15;;
63959;SDS011;50136;51.374;0.096;2023-08-31T16:30:45;2.83;;;1.20;;
63959;SDS011;50136;51.374;0.096;2023-08-31T16:40:48;3.42;;;1.08;;
63959;SDS011;50136;51.374;0.096;2023-08-31T16:50:52;3.50;;;1.30;;
63959;SDS011;50136;51.374;0.096;2023-08-31T17:00:53;1.23;;;0.90;;
63959;SDS011;50136;51.374;0.096;2023-08-31T17:10:57;3.28;;;1.27;;
63959;SDS011;50136;51.374;0.096;2023-08-31T17:20:59;3.60;;;1.90;;
63959;SDS011;50136;51.374;0.096;2023-08-31T17:31:03;2.92;;;1.50;;
63959;SDS011;50136;51.374;0.096;2023-08-31T17:41:05;5.40;;;1.58;;
63959;SDS011;50136;51.374;0.096;2023-08-31T17:51:08;3.92;;;1.50;;
63959;SDS011;50136;51.374;0.096;2023-08-31T18:01:13;5.95;;;1.60;;
63959;SDS011;50136;51.374;0.096;2023-08-31T18:11:17;4.40;;;1.83;;
63959;SDS011;50136;51.374;0.096;2023-08-31T18:21:19;4.13;;;1.63;;
63959;SDS011;50136;51.374;0.096;2023-08-31T18:31:22;2.63;;;1.70;;
63959;SDS011;50136;51.374;0.096;2023-08-31T18:41:24;3.10;;;1.58;;
63959;SDS011;50136;51.374;0.096;2023-08-31T18:51:28;9.50;;;2.40;;
63959;SDS011;50136;51.374;0.096;2023-08-31T19:01:31;4.90;;;3.10;;
63959;SDS011;50136;51.374;0.096;2023-08-31T19:11:34;4.13;;;2.40;;
63959;SDS011;50136;51.374;0.096;2023-08-31T19:21:36;7.43;;;4.57;;
63959;SDS011;50136;51.374;0.096;2023-08-31T19:31:40;7.32;;;5.20;;
63959;SDS011;50136;51.374;0.096;2023-08-31T19:41:42;6.70;;;3.45;;
63959;SDS011;50136;51.374;0.096;2023-08-31T19:51:45;7.10;;;2.95;;
63959;SDS011;50136;51.374;0.096;2023-08-31T20:01:47;2.97;;;2.55;;
63959;SDS011;50136;51.374;0.096;2023-08-31T20:11:51;4.20;;;2.85;;
63959;SDS011;50136;51.374;0.096;2023-08-31T20:21:53;4.55;;;2.95;;
63959;SDS011;50136;51.374;0.096;2023-08-31T20:31:57;3.88;;;2.92;;
63959;SDS011;50136;51.374;0.096;2023-08-31T20:41:59;6.50;;;3.60;;
63959;SDS011;50136;51.374;0.096;2023-08-31T20:52:03;4.45;;;3.25;;
63959;SDS011;50136;51.374;0.096;2023-08-31T21:02:05;4.60;;;3.20;;
63959;SDS011;50136;51.374;0.096;2023-08-31T21:12:09;3.75;;;2.70;;
63959;SDS011;50136;51.374;0.096;2023-08-31T21:22:11;5.22;;;2.63;;
63959;SDS011;50136;51.374;0.096;2023-08-31T21:32:14;4.82;;;2.53;;
63959;SDS011;50136;51.374;0.096;2023-08-31T21:42:16;3.78;;;2.55;;
63959;SDS011;50136;51.374;0.096;2023-08-31T21:52:19;4.72;;;3.15;;
63959;SDS011;50136;51.374;0.096;2023-08-31T22:02:21;5.55;;;3.10;;
63959;SDS011;50136;51.374;0.096;2023-08-31T22:12:25;4.35;;;3.00;;
63959;SDS011;50136;51.374;0.096;2023-08-31T22:22:27;3.33;;;2.30;;
63959;SDS011;50136;51.374;0.096;2023-08-31T22:32:30;4.20;;;2.78;;
63959;SDS011;50136;51.374;0.096;2023-08-31T22:42:33;4.72;;;3.40;;
63959;SDS011;50136;51.374;0.096;2023-08-31T22:52:37;4.68;;;3.42;;
63959;SDS011;50136;51.374;0.096;2023-08-31T23:02:39;3.35;;;2.63;;
63959;SDS011;50136;51.374;0.096;2023-08-31T23:12:43;3.33;;;2.60;;
63959;SDS011;50136;51.374;0.096;2023-08-31T23:22:45;2.90;;;2.42;;
63959;SDS011;50136;51.374;0.096;2023-08-31T23:32:48;3.75;;;3.10;;
63959;SDS011;50136;51.374;0.096;2023-08-31T23:42:50;2.60;;;2.17;;
63959;SDS011;50136;51.374;0.096;2023-08-31T23:52:54;3.15;;;2.47;;
